Time;durP1;ratioP1;P1;durP2;ratioP2;P2;SDS_P1;SDS_P2;PMS_P1;PMS_P2;Temp;Humidity;BMP_temperature;BMP_pressure;BME280_temperature;BME280_humidity;BME280_pressure;Samples;Min_cycle;Max_cycle;Signal;HPM_P1;HPM_P2
2022/09/28 00:01:35;;;;;;;7.22;5.18;;;6.90;99.90;;;;;;4955756;28;20544;-67
2022/09/28 00:04:02;;;;;;;7.50;5.15;;;6.90;99.90;;;;;;4973805;28;20055;-67
2022/09/28 00:06:30;;;;;;;9.18;5.70;;;6.90;99.90;;;;;;4973804;28;20077;-69
2022/09/28 00:08:58;;;;;;;9.95;5.57;;;6.90;99.90;;;;;;4952103;28;20067;-68
2022/09/28 00:11:26;;;;;;;8.48;5.43;;;6.90;99.90;;;;;;4957062;28;20058;-68
2022/09/28 00:13:56;;;;;;;9.00;5.45;;;6.90;99.90;;;;;;4957494;28;20086;-66
2022/09/28 00:16:27;;;;;;;10.02;5.65;;;7.00;99.90;;;;;;4956802;29;20055;-68
2022/09/28 00:18:54;;;;;;;;;;;7.00;99.90;;;;;;4957488;29;20063;-68
2022/09/28 00:21:23;;;;;;;8.52;5.03;;;7.00;99.90;;;;;;4956437;29;19929;-67
2022/09/28 00:26:39;;;;;;;7.03;5.60;;;7.10;99.90;;;;;;4956550;29;20593;-68
2022/09/28 00:29:06;;;;;;;10.55;6.32;;;7.10;99.90;;;;;;4956102;29;20073;-68
2022/09/28 00:31:35;;;;;;;10.75;5.80;;;7.10;99.90;;;;;;4957514;28;20055;-68
2022/09/28 00:34:04;;;;;;;10.60;6.30;;;7.10;99.90;;;;;;4956785;29;20059;-68
2022/09/28 00:36:32;;;;;;;10.40;5.80;;;7.10;99.90;;;;;;4952373;29;20126;-68
2022/09/28 00:39:03;;;;;;;9.40;5.88;;;7.20;99.90;;;;;;4937376;29;20056;-68
2022/09/28 00:41:30;;;;;;;16.60;6.90;;;7.20;99.90;;;;;;4937528;29;20052;-67
2022/09/28 00:44:32;;;;;;;13.02;6.78;;;7.20;99.90;;;;;;4937823;29;20412;-68
2022/09/28 00:47:04;;;;;;;9.38;6.40;;;7.20;99.90;;;;;;4914259;29;20044;-68
2022/09/28 00:49:34;;;;;;;9.77;6.40;;;7.20;99.90;;;;;;4937758;29;20111;-68
2022/09/28 00:52:02;;;;;;;;;;;7.30;99.90;;;;;;4937773;29;20138;-68
2022/09/28 00:54:29;;;;;;;9.40;5.82;;;7.20;99.90;;;;;;4938392;29;19929;-68
2022/09/28 00:56:57;;;;;;;11.40;5.88;;;7.20;99.90;;;;;;4936729;29;20055;-68
2022/09/28 00:59:25;;;;;;;9.75;6.30;;;7.10;99.90;;;;;;4937757;29;20508;-67
2022/09/28 01:01:52;;;;;;;9.45;6.70;;;7.20;99.90;;;;;;4937102;29;20064;-67
2022/09/28 01:04:21;;;;;;;8.88;5.82;;;7.10;99.90;;;;;;4936284;29;20048;-67
2022/09/28 01:06:49;;;;;;;12.13;6.17;;;7.20;99.90;;;;;;4946102;29;20107;-68
2022/09/28 01:09:17;;;;;;;10.60;6.65;;;7.10;99.90;;;;;;4936841;29;20059;-68
2022/09/28 01:11:44;;;;;;;10.00;6.85;;;7.10;99.90;;;;;;4935786;29;20495;-67
2022/09/28 01:14:13;;;;;;;8.65;6.53;;;7.10;99.90;;;;;;4937307;29;20048;-68
2022/09/28 01:16:45;;;;;;;8.95;6.25;;;7.10;99.90;;;;;;4937837;29;20496;-68
2022/09/28 01:19:32;;;;;;;14.73;6.57;;;7.00;99.90;;;;;;4937043;29;20052;-67
2022/09/28 01:22:14;;;;;;;12.02;6.85;;;7.00;99.90;;;;;;4948998;28;20063;-67
2022/09/28 01:24:45;;;;;;;10.77;8.18;;;7.00;99.90;;;;;;4937060;29;20392;-68
2022/09/28 01:27:15;;;;;;;;;;;6.90;99.90;;;;;;4953829;29;20074;-68
2022/09/28 01:29:48;;;;;;;10.88;7.00;;;6.90;99.90;;;;;;4955835;29;19922;-67
2022/09/28 01:32:25;;;;;;;12.05;6.78;;;6.80;99.90;;;;;;4954796;29;20047;-67
2022/09/28 01:34:57;;;;;;;9.55;6.68;;;6.80;99.90;;;;;;4956272;28;20047;-68
2022/09/28 01:37:31;;;;;;;9.73;6.82;;;6.80;99.90;;;;;;4956468;28;20047;-67
2022/09/28 01:40:01;;;;;;;9.60;6.75;;;6.70;99.90;;;;;;4954704;29;20510;-67
2022/09/28 01:42:32;;;;;;;10.48;6.47;;;6.70;99.90;;;;;;4955405;29;20051;-66
2022/09/28 01:45:06;;;;;;;9.52;6.53;;;6.70;99.90;;;;;;4955160;29;20063;-67
2022/09/28 01:47:36;;;;;;;10.25;6.10;;;6.70;99.90;;;;;;4955785;28;20083;-67
2022/09/28 01:50:07;;;;;;;;;;;6.70;99.90;;;;;;4957030;28;20059;-67
2022/09/28 01:52:39;;;;;;;14.57;6.03;;;6.60;99.90;;;;;;4954439;29;19938;-67
2022/09/28 01:55:10;;;;;;;9.15;6.10;;;6.60;99.90;;;;;;4955066;29;20138;-68
2022/09/28 01:57:40;;;;;;;;;;;6.60;99.90;;;;;;4956827;28;20047;-68
2022/09/28 02:00:11;;;;;;;8.75;6.10;;;6.60;99.90;;;;;;4954255;29;19934;-68
2022/09/28 02:02:42;;;;;;;8.32;6.68;;;6.60;99.90;;;;;;4956251;28;20055;-67
2022/09/28 02:05:15;;;;;;;8.95;6.97;;;6.60;99.90;;;;;;4956170;28;20050;-68
2022/09/28 02:07:45;;;;;;;14.10;8.68;;;6.60;99.90;;;;;;4935058;29;20111;-67
2022/09/28 02:10:14;;;;;;;;;;;6.70;99.90;;;;;;4954463;29;20051;-68
2022/09/28 02:12:47;;;;;;;14.65;7.18;;;6.70;99.90;;;;;;4939038;29;19922;-67
2022/09/28 02:15:19;;;;;;;14.15;7.70;;;6.80;99.90;;;;;;4937832;29;20047;-68
2022/09/28 02:17:46;;;;;;;13.02;9.23;;;6.80;99.90;;;;;;4939000;29;20102;-67
2022/09/28 02:20:14;;;;;;;11.88;7.80;;;6.80;99.90;;;;;;4940742;28;20451;-68
2022/09/28 02:22:47;;;;;;;16.67;8.85;;;6.90;99.90;;;;;;4957327;28;20055;-68
2022/09/28 02:25:23;;;;;;;11.20;8.25;;;6.90;99.90;;;;;;4957449;28;20047;-68
2022/09/28 02:27:58;;;;;;;12.32;8.10;;;7.00;99.90;;;;;;4957205;28;20058;-68
2022/09/28 02:30:25;;;;;;;11.68;8.13;;;7.00;99.90;;;;;;4974632;28;20054;-68
2022/09/28 02:32:56;;;;;;;12.18;8.52;;;7.00;99.90;;;;;;4956954;28;20388;-68
2022/09/28 02:35:23;;;;;;;14.95;7.90;;;7.10;99.90;;;;;;4974067;28;20121;-67
2022/09/28 02:37:51;;;;;;;11.30;7.88;;;7.00;99.90;;;;;;4957007;28;20050;-68
2022/09/28 02:40:20;;;;;;;14.05;8.23;;;7.00;99.90;;;;;;4974337;28;20062;-67
2022/09/28 02:42:59;;;;;;;12.35;7.47;;;7.00;99.90;;;;;;4973915;28;20150;-68
2022/09/28 02:45:39;;;;;;;14.18;7.90;;;7.10;99.90;;;;;;4974799;28;20630;-67
2022/09/28 02:48:21;;;;;;;12.32;8.77;;;7.00;99.90;;;;;;4957604;28;20545;-67
2022/09/28 02:50:57;;;;;;;19.10;9.20;;;7.00;99.90;;;;;;4973146;28;20054;-67
2022/09/28 02:53:45;;;;;;;22.88;8.88;;;7.00;99.90;;;;;;4956875;28;20059;-66
2022/09/28 02:56:30;;;;;;;52.28;9.95;;;7.00;99.90;;;;;;4956652;28;20496;-66
2022/09/28 02:59:12;;;;;;;21.27;8.73;;;7.00;99.90;;;;;;4957204;28;20050;-66
2022/09/28 03:01:56;;;;;;;52.08;10.38;;;6.90;99.90;;;;;;4957213;28;20081;-68
2022/09/28 03:04:30;;;;;;;38.55;9.10;;;6.90;99.90;;;;;;4973689;28;20051;-68
2022/09/28 03:07:05;;;;;;;52.22;11.05;;;6.90;99.90;;;;;;4974257;28;20055;-69
2022/09/28 03:09:37;;;;;;;63.15;11.60;;;6.80;99.90;;;;;;4956963;28;20106;-68
2022/09/28 03:12:09;;;;;;;123.07;14.32;;;6.80;99.90;;;;;;4956058;28;20046;-68
2022/09/28 03:14:37;;;;;;;102.45;11.55;;;6.70;99.90;;;;;;4957360;28;20057;-68
2022/09/28 03:17:04;;;;;;;130.55;13.45;;;6.70;99.90;;;;;;4973551;28;20047;-67
2022/09/28 03:19:33;;;;;;;178.05;16.02;;;6.70;99.90;;;;;;4956572;28;20070;-68
2022/09/28 03:22:00;;;;;;;78.15;11.10;;;6.60;99.90;;;;;;4937722;29;20055;-68
2022/09/28 03:24:27;;;;;;;140.02;14.52;;;6.60;99.90;;;;;;4954573;29;20130;-66
2022/09/28 03:26:54;;;;;;;169.88;13.27;;;6.60;99.90;;;;;;4937317;29;20047;-68
2022/09/28 03:29:21;;;;;;;166.95;14.50;;;6.60;99.90;;;;;;4937718;29;20140;-68
2022/09/28 03:31:49;;;;;;;152.20;11.82;;;6.50;99.90;;;;;;4953635;29;20059;-68
2022/09/28 03:34:16;;;;;;;161.68;12.05;;;6.50;99.90;;;;;;4938045;28;20050;-68
2022/09/28 03:36:43;;;;;;;137.52;11.55;;;6.50;99.90;;;;;;4937760;29;20447;-69
2022/09/28 03:39:10;;;;;;;185.68;14.57;;;6.50;99.90;;;;;;4936938;29;20069;-67
2022/09/28 03:41:37;;;;;;;156.30;12.55;;;6.40;99.90;;;;;;4954529;29;20388;-68
2022/09/28 03:44:04;;;;;;;153.02;12.80;;;6.40;99.90;;;;;;4938095;29;20070;-68
2022/09/28 03:46:31;;;;;;;124.07;11.57;;;6.40;99.90;;;;;;4976460;28;20047;-68
2022/09/28 03:48:59;;;;;;;154.52;12.48;;;6.30;99.90;;;;;;4978053;28;20085;-67
2022/09/28 03:51:26;;;;;;;95.82;9.18;;;6.30;99.90;;;;;;4956337;29;20524;-67
2022/09/28 03:53:53;;;;;;;178.98;13.38;;;6.30;99.90;;;;;;4957862;29;20054;-67
2022/09/28 03:56:20;;;;;;;116.45;10.80;;;6.30;99.90;;;;;;4958434;29;20062;-68
2022/09/28 03:58:47;;;;;;;89.10;8.23;;;6.20;99.90;;;;;;4958312;29;20047;-68
2022/09/28 04:01:15;;;;;;;81.80;9.27;;;6.20;99.90;;;;;;4940075;29;20062;-68
2022/09/28 04:03:42;;;;;;;124.28;9.98;;;6.20;99.90;;;;;;4941381;29;20087;-68
2022/09/28 04:06:11;;;;;;;147.93;12.18;;;6.20;99.90;;;;;;4940762;29;20047;-68
2022/09/28 04:08:38;;;;;;;144.38;10.88;;;6.10;99.90;;;;;;4953642;28;20085;-67
2022/09/28 04:11:06;;;;;;;101.65;9.73;;;6.10;99.90;;;;;;4959452;28;20067;-66
2022/09/28 04:13:33;;;;;;;114.88;8.80;;;6.00;99.90;;;;;;4975317;28;20062;-67
2022/09/28 04:16:01;;;;;;;99.40;9.82;;;6.00;99.90;;;;;;4976640;28;20055;-67
2022/09/28 04:18:29;;;;;;;53.40;7.20;;;5.90;99.90;;;;;;4977482;28;20051;-66
2022/09/28 04:21:02;;;;;;;83.30;9.27;;;5.90;99.90;;;;;;4959353;28;20081;-68
2022/09/28 04:23:30;;;;;;;69.47;7.85;;;5.90;99.90;;;;;;4959899;28;20137;-67
2022/09/28 04:25:57;;;;;;;121.80;12.27;;;5.80;99.90;;;;;;4959683;28;20126;-68
2022/09/28 04:31:10;;;;;;;115.97;10.77;;;5.70;99.90;;;;;;4959831;28;20057;-67
2022/09/28 04:33:37;;;;;;;92.68;9.90;;;5.70;99.90;;;;;;4977217;28;20070;-66
2022/09/28 04:36:05;;;;;;;72.05;8.85;;;5.70;99.90;;;;;;4959336;28;20055;-66
2022/09/28 04:38:34;;;;;;;62.72;8.32;;;5.60;99.90;;;;;;4976902;28;20050;-66
2022/09/28 04:41:01;;;;;;;104.25;9.35;;;5.60;99.90;;;;;;4976663;28;20043;-66
2022/09/28 04:43:28;;;;;;;121.60;10.77;;;5.70;99.90;;;;;;4958896;28;20057;-66
2022/09/28 04:45:58;;;;;;;50.80;7.90;;;5.60;99.90;;;;;;4976897;28;20058;-66
2022/09/28 04:48:25;;;;;;;52.45;7.85;;;5.60;99.90;;;;;;4976115;28;20529;-67
2022/09/28 04:50:55;;;;;;;59.42;9.15;;;5.60;99.90;;;;;;4959308;28;20170;-67
2022/09/28 04:53:23;;;;;;;92.35;10.43;;;5.70;99.90;;;;;;4975381;28;20426;-67
2022/09/28 04:56:01;;;;;;;18.85;6.85;;;5.70;99.90;;;;;;4975402;28;20042;-67
2022/09/28 04:58:29;;;;;;;20.20;7.13;;;5.70;99.90;;;;;;4976933;28;20070;-67
2022/09/28 05:00:59;;;;;;;12.13;6.13;;;5.70;99.90;;;;;;4976454;28;20471;-67
2022/09/28 05:03:26;;;;;;;16.63;7.00;;;5.80;99.90;;;;;;4975573;28;20062;-68
2022/09/28 05:05:53;;;;;;;13.82;6.97;;;5.80;99.90;;;;;;4959155;28;20183;-68
2022/09/28 05:08:21;;;;;;;24.80;7.18;;;5.80;99.90;;;;;;4955436;29;20063;-67
2022/09/28 05:10:48;;;;;;;11.48;6.90;;;5.90;99.90;;;;;;4938938;29;20062;-68
2022/09/28 05:13:17;;;;;;;12.38;6.13;;;5.90;99.90;;;;;;4939944;29;20051;-67
2022/09/28 05:15:44;;;;;;;14.40;6.90;;;5.90;99.90;;;;;;4940116;29;20055;-66
2022/09/28 05:18:12;;;;;;;11.10;7.43;;;5.90;99.90;;;;;;4955955;29;20491;-67
2022/09/28 05:20:42;;;;;;;10.80;7.25;;;5.90;99.90;;;;;;4967349;28;20051;-68
2022/09/28 05:23:11;;;;;;;10.77;7.73;;;5.90;99.90;;;;;;4976155;28;20073;-67
2022/09/28 05:25:38;;;;;;;11.13;7.18;;;6.00;99.90;;;;;;4958039;28;20456;-68
2022/09/28 05:28:05;;;;;;;10.90;7.60;;;6.00;99.90;;;;;;4976009;28;20418;-67
2022/09/28 05:30:34;;;;;;;9.18;6.75;;;6.00;99.90;;;;;;4958189;28;20059;-70
2022/09/28 05:33:01;;;;;;;9.63;7.07;;;6.00;99.90;;;;;;4958398;28;20490;-68
2022/09/28 05:35:29;;;;;;;8.27;6.40;;;6.10;99.90;;;;;;4955442;29;20059;-67
2022/09/28 05:37:56;;;;;;;9.93;7.05;;;6.10;99.90;;;;;;4954286;28;20454;-68
2022/09/28 05:40:23;;;;;;;10.43;7.80;;;6.10;99.90;;;;;;4975547;28;20081;-67
2022/09/28 05:42:50;;;;;;;9.48;6.85;;;6.20;99.90;;;;;;4958565;28;20061;-66
2022/09/28 05:45:17;;;;;;;11.88;8.07;;;6.20;99.90;;;;;;4975000;28;20062;-66
2022/09/28 05:47:46;;;;;;;10.27;7.82;;;6.20;99.90;;;;;;4965688;28;20047;-66
2022/09/28 05:50:14;;;;;;;10.10;7.15;;;6.40;99.90;;;;;;4960670;28;20097;-66
2022/09/28 05:52:43;;;;;;;9.70;6.95;;;6.30;99.90;;;;;;4967183;28;20046;-66
2022/09/28 05:55:10;;;;;;;12.60;7.07;;;6.30;99.90;;;;;;4950206;28;20047;-66
2022/09/28 05:57:37;;;;;;;9.60;7.10;;;6.30;99.90;;;;;;4954191;28;20038;-66
2022/09/28 06:00:07;;;;;;;9.90;7.07;;;6.30;99.90;;;;;;4950140;28;20050;-67
2022/09/28 06:02:34;;;;;;;11.52;7.05;;;6.30;99.90;;;;;;4945978;28;20089;-67
2022/09/28 06:05:02;;;;;;;10.63;7.57;;;6.30;99.90;;;;;;4948219;28;20050;-67
2022/09/28 06:07:29;;;;;;;13.00;7.07;;;6.40;99.90;;;;;;4953020;28;20062;-67
2022/09/28 06:09:56;;;;;;;9.00;6.47;;;6.30;99.90;;;;;;4950028;28;20058;-67
2022/09/28 06:12:23;;;;;;;8.93;6.72;;;6.40;99.90;;;;;;4945387;28;20062;-67
2022/09/28 06:14:50;;;;;;;11.18;7.45;;;6.50;99.90;;;;;;4965481;28;20058;-67
2022/09/28 06:17:17;;;;;;;11.05;6.78;;;6.50;99.90;;;;;;4974692;28;20450;-66
2022/09/28 06:19:44;;;;;;;10.93;7.00;;;6.40;99.90;;;;;;4951619;28;20125;-68
2022/09/28 06:22:12;;;;;;;12.18;8.15;;;6.80;99.90;;;;;;4952014;28;20090;-68
2022/09/28 06:24:39;;;;;;;12.30;8.88;;;6.90;99.90;;;;;;4967278;28;20236;-67
2022/09/28 06:27:06;;;;;;;11.00;7.47;;;6.90;99.90;;;;;;4950976;28;20046;-67
2022/09/28 06:29:33;;;;;;;12.20;7.07;;;7.00;99.90;;;;;;4953342;28;20154;-67
2022/09/28 06:32:00;;;;;;;9.98;7.47;;;7.00;99.90;;;;;;4950796;28;20061;-67
2022/09/28 06:34:28;;;;;;;9.82;6.20;;;7.00;99.90;;;;;;4947754;28;20051;-66
2022/09/28 06:36:55;;;;;;;9.77;6.05;;;7.00;99.90;;;;;;4950774;28;20550;-67
2022/09/28 06:39:24;;;;;;;9.25;6.45;;;7.00;99.90;;;;;;4966799;28;20118;-68
2022/09/28 06:41:51;;;;;;;8.38;6.43;;;7.10;99.90;;;;;;4965957;28;20050;-67
2022/09/28 06:44:18;;;;;;;8.23;6.10;;;7.20;99.90;;;;;;4968182;28;20088;-67
2022/09/28 06:46:45;;;;;;;8.73;6.72;;;7.30;99.90;;;;;;4969356;28;20498;-67
2022/09/28 06:49:12;;;;;;;9.60;6.20;;;7.50;99.90;;;;;;4967120;28;20066;-67
2022/09/28 06:51:39;;;;;;;8.75;5.88;;;7.60;99.90;;;;;;4967128;28;20149;-67
2022/09/28 06:54:06;;;;;;;8.82;6.10;;;7.80;99.90;;;;;;4967454;28;20054;-67
2022/09/28 06:56:35;;;;;;;7.93;5.95;;;8.00;99.90;;;;;;4950717;28;20125;-67
2022/09/28 06:59:02;;;;;;;13.73;6.70;;;8.10;99.90;;;;;;4970730;28;20503;-66
2022/09/28 07:01:29;;;;;;;9.70;6.15;;;8.60;99.90;;;;;;4951635;28;20046;-67
2022/09/28 07:03:56;;;;;;;8.15;6.28;;;8.80;99.90;;;;;;4948072;28;20411;-67
2022/09/28 07:06:25;;;;;;;6.95;5.32;;;9.40;99.90;;;;;;4950280;28;20081;-68
2022/09/28 07:08:52;;;;;;;8.07;5.57;;;10.00;99.90;;;;;;4950843;28;20135;-68
2022/09/28 07:11:20;;;;;;;7.38;5.55;;;10.50;99.90;;;;;;4971135;28;20051;-68
2022/09/28 07:13:48;;;;;;;7.25;5.60;;;11.20;99.90;;;;;;4963319;28;20192;-68
2022/09/28 07:16:15;;;;;;;6.78;5.63;;;11.80;99.90;;;;;;4953080;28;20466;-67
2022/09/28 07:18:42;;;;;;;6.60;5.05;;;12.70;99.90;;;;;;4951539;28;20121;-67
2022/09/28 07:21:08;;;;;;;7.05;5.63;;;13.80;99.90;;;;;;4966976;28;20055;-68
2022/09/28 07:23:36;;;;;;;6.80;4.82;;;14.60;99.90;;;;;;4949038;28;20050;-70
2022/09/28 07:26:05;;;;;;;6.40;4.75;;;15.00;99.90;;;;;;4972328;28;20047;-69
2022/09/28 07:28:32;;;;;;;7.57;5.93;;;15.60;99.90;;;;;;4963915;28;20467;-69
2022/09/28 07:31:02;;;;;;;6.70;5.50;;;16.20;99.90;;;;;;4945513;28;20077;-68
2022/09/28 07:33:31;;;;;;;6.63;4.95;;;16.90;99.90;;;;;;4952545;28;20051;-69
2022/09/28 07:35:59;;;;;;;5.75;5.03;;;17.50;99.90;;;;;;4951280;28;20059;-69
2022/09/28 07:38:26;;;;;;;5.55;4.70;;;18.60;99.90;;;;;;4963813;28;20094;-71
2022/09/28 07:41:11;;;;;;;5.70;3.83;;;19.30;99.90;;;;;;4948536;28;20077;-70
2022/09/28 07:43:39;;;;;;;4.65;4.05;;;19.70;99.90;;;;;;4947976;28;20043;-69
2022/09/28 07:46:10;;;;;;;5.07;4.10;;;20.50;99.90;;;;;;4947849;28;20113;-69
2022/09/28 07:48:41;;;;;;;7.03;4.38;;;21.00;99.90;;;;;;4952742;28;20047;-70
2022/09/28 07:51:09;;;;;;;6.03;4.53;;;21.30;99.90;;;;;;4945503;28;20092;-68
2022/09/28 07:53:37;;;;;;;6.35;4.85;;;21.20;99.80;;;;;;4960943;28;20046;-69
2022/09/28 07:56:06;;;;;;;6.40;4.97;;;20.80;98.30;;;;;;4947369;28;20503;-71
2022/09/28 07:58:35;;;;;;;5.32;4.40;;;20.90;98.00;;;;;;4961661;28;20553;-71
2022/09/28 08:01:09;;;;;;;5.32;4.82;;;21.30;97.60;;;;;;4941060;28;20066;-72
2022/09/28 08:03:36;;;;;;;5.82;4.30;;;21.20;93.90;;;;;;4967009;28;20047;-70
2022/09/28 08:06:08;;;;;;;5.38;3.60;;;21.70;96.80;;;;;;4947916;28;20078;-71
2022/09/28 08:08:35;;;;;;;5.07;4.03;;;22.10;95.80;;;;;;4949939;28;20043;-71
2022/09/28 08:11:03;;;;;;;4.78;3.67;;;22.50;95.10;;;;;;4965466;28;20051;-70
2022/09/28 08:13:30;;;;;;;4.43;3.78;;;23.10;94.60;;;;;;4945759;28;20498;-70
2022/09/28 08:16:01;;;;;;;4.72;4.15;;;23.50;93.60;;;;;;4946566;28;20047;-70
2022/09/28 08:18:29;;;;;;;3.88;3.30;;;23.50;92.50;;;;;;4952490;28;20046;-69
2022/09/28 08:23:41;;;;;;;4.78;2.72;;;23.80;92.50;;;;;;4947859;28;20047;-69
2022/09/28 08:26:08;;;;;;;3.72;2.88;;;23.80;92.00;;;;;;4964326;28;20058;-70
2022/09/28 08:28:35;;;;;;;3.63;2.72;;;23.10;91.60;;;;;;4948082;28;20070;-71
2022/09/28 08:31:02;;;;;;;5.13;3.00;;;23.10;91.20;;;;;;4951138;28;20135;-70
2022/09/28 08:33:31;;;;;;;11.00;3.08;;;23.40;91.40;;;;;;4951791;28;20180;-69
2022/09/28 08:35:59;;;;;;;4.88;3.67;;;23.60;91.30;;;;;;4969865;28;20502;-69
2022/09/28 08:38:27;;;;;;;8.05;3.28;;;23.50;91.00;;;;;;4949485;28;20402;-70
2022/09/28 08:41:08;;;;;;;4.35;3.10;;;23.70;90.60;;;;;;4948800;28;20054;-69
2022/09/28 08:44:13;;;;;;;6.03;3.20;;;23.50;90.30;;;;;;4968296;28;20047;-69
2022/09/28 08:46:43;;;;;;;6.20;2.55;;;23.60;87.60;;;;;;4972646;28;20105;-69
2022/09/28 08:49:18;;;;;;;3.13;2.80;;;24.40;90.10;;;;;;4971004;28;20101;-68
2022/09/28 08:51:50;;;;;;;4.28;3.00;;;23.90;89.20;;;;;;4949707;28;20055;-69
2022/09/28 08:54:27;;;;;;;4.63;2.65;;;24.70;86.40;;;;;;4952963;28;20055;-68
2022/09/28 08:56:59;;;;;;;7.60;4.15;;;25.10;84.80;;;;;;4969873;28;20043;-69
2022/09/28 08:59:30;;;;;;;5.35;3.45;;;25.30;85.70;;;;;;4951352;28;20106;-68
2022/09/28 09:02:02;;;;;;;2.75;2.00;;;24.60;85.10;;;;;;4949264;28;20597;-68
2022/09/28 09:04:32;;;;;;;6.28;2.33;;;23.70;86.00;;;;;;4967860;28;20055;-67
2022/09/28 09:07:24;;;;;;;2.75;1.73;;;22.50;87.30;;;;;;4950505;28;20061;-67
2022/09/28 09:10:03;;;;;;;3.03;1.88;;;21.10;89.30;;;;;;4946016;28;20058;-68
2022/09/28 09:12:39;;;;;;;3.83;2.10;;;19.90;91.90;;;;;;4966584;28;20047;-68
2022/09/28 09:15:37;;;;;;;5.57;1.83;;;19.10;92.60;;;;;;4967715;28;20414;-68
2022/09/28 09:18:17;;;;;;;3.50;1.90;;;18.40;93.60;;;;;;4952190;28;20078;-67
2022/09/28 09:20:50;;;;;;;3.20;1.80;;;18.30;95.30;;;;;;4949394;28;20101;-68
2022/09/28 09:23:22;;;;;;;3.38;1.60;;;19.70;95.40;;;;;;4948171;28;20533;-68
2022/09/28 09:25:51;;;;;;;3.03;1.52;;;21.60;92.90;;;;;;4966016;28;20047;-67
2022/09/28 09:28:51;;;;;;;5.32;1.60;;;23.10;90.60;;;;;;4969547;28;20050;-68
2022/09/28 09:31:35;;;;;;;2.22;1.42;;;24.60;84.60;;;;;;4967089;28;20050;-68
2022/09/28 09:34:17;;;;;;;3.67;1.60;;;25.50;81.80;;;;;;4949521;28;20069;-68
2022/09/28 09:36:58;;;;;;;3.08;1.50;;;26.20;77.70;;;;;;4947106;28;20074;-67
2022/09/28 09:39:40;;;;;;;2.78;1.00;;;26.60;77.40;;;;;;4965979;28;20051;-68
2022/09/28 09:42:22;;;;;;;2.95;1.17;;;26.70;74.40;;;;;;4948214;28;20057;-69
2022/09/28 09:45:17;;;;;;;2.38;1.00;;;27.10;75.00;;;;;;4963028;28;20050;-69
2022/09/28 09:47:49;;;;;;;2.05;0.80;;;27.20;73.70;;;;;;4969778;28;20046;-68
2022/09/28 09:50:28;;;;;;;3.38;1.27;;;26.90;76.40;;;;;;4969738;28;20059;-69
2022/09/28 09:53:02;;;;;;;2.05;1.15;;;26.70;74.40;;;;;;4966794;28;20053;-68
2022/09/28 09:55:34;;;;;;;2.30;1.23;;;26.60;75.60;;;;;;4973054;28;20065;-68
2022/09/28 09:58:09;;;;;;;2.35;0.90;;;26.60;76.60;;;;;;4950070;28;20412;-69
2022/09/28 10:00:39;;;;;;;2.47;0.85;;;25.80;74.20;;;;;;4949966;28;20074;-69
2022/09/28 10:03:06;;;;;;;4.13;0.90;;;24.40;78.60;;;;;;4949285;28;20050;-68
2022/09/28 10:05:36;;;;;;;3.10;0.90;;;22.90;82.00;;;;;;4949228;28;20431;-68
2022/09/28 10:08:13;;;;;;;2.08;0.82;;;21.60;83.30;;;;;;4950651;28;20091;-68
2022/09/28 10:10:48;;;;;;;3.42;0.95;;;20.70;83.50;;;;;;4967553;28;20043;-68
2022/09/28 10:13:15;;;;;;;3.60;1.05;;;20.30;85.50;;;;;;4966609;28;20388;-69
2022/09/28 10:15:44;;;;;;;3.97;0.90;;;20.00;86.80;;;;;;4948304;28;20066;-68
2022/09/28 10:18:13;;;;;;;3.35;1.00;;;19.30;88.20;;;;;;4955346;28;20122;-68
2022/09/28 10:20:43;;;;;;;0.80;0.50;;;18.90;89.00;;;;;;4948413;28;20042;-68
2022/09/28 10:23:18;;;;;;;1.85;0.77;;;18.30;90.60;;;;;;4949181;28;20138;-68
2022/09/28 10:25:48;;;;;;;4.57;1.05;;;17.90;91.40;;;;;;4951294;28;20784;-68
2022/09/28 10:28:24;;;;;;;3.60;0.73;;;17.70;91.80;;;;;;4946061;28;20388;-68
2022/09/28 10:30:51;;;;;;;1.95;0.77;;;17.80;92.50;;;;;;4949301;28;20050;-67
2022/09/28 10:33:29;;;;;;;3.15;0.88;;;18.90;92.10;;;;;;4968786;28;20077;-68
2022/09/28 10:35:57;;;;;;;2.20;0.80;;;20.20;90.20;;;;;;4966347;28;20080;-70
2022/09/28 10:38:25;;;;;;;1.88;0.60;;;21.60;88.60;;;;;;4965506;28;20150;-68
2022/09/28 10:40:54;;;;;;;2.53;0.80;;;23.00;84.40;;;;;;4948123;28;20494;-68
2022/09/28 10:43:24;;;;;;;2.03;0.80;;;24.20;80.70;;;;;;4947535;28;20140;-68
2022/09/28 10:46:01;;;;;;;1.48;0.70;;;24.80;78.80;;;;;;4951399;28;20146;-68
2022/09/28 10:48:30;;;;;;;3.45;0.85;;;25.00;75.30;;;;;;4954200;28;20047;-69
2022/09/28 10:51:04;;;;;;;1.65;0.60;;;25.60;76.40;;;;;;4949431;28;20141;-69
2022/09/28 10:53:35;;;;;;;3.83;0.93;;;26.00;74.60;;;;;;4950971;28;20050;-68
2022/09/28 10:56:05;;;;;;;2.17;0.55;;;26.40;73.60;;;;;;4962404;28;20546;-69
2022/09/28 10:58:38;;;;;;;2.85;0.70;;;27.00;73.40;;;;;;4969636;28;20050;-70
2022/09/28 11:01:11;;;;;;;1.58;0.50;;;27.00;70.90;;;;;;4948282;28;20051;-69
2022/09/28 11:03:49;;;;;;;4.40;0.60;;;27.10;71.10;;;;;;4964731;28;20058;-68
2022/09/28 11:06:26;;;;;;;1.88;0.93;;;27.40;70.10;;;;;;4967708;28;20506;-68
2022/09/28 11:08:58;;;;;;;1.98;0.57;;;27.90;67.20;;;;;;4963886;28;20567;-68
2022/09/28 11:11:25;;;;;;;0.68;0.38;;;28.00;67.20;;;;;;4949246;28;20046;-69
2022/09/28 11:13:55;;;;;;;3.55;0.52;;;27.90;68.10;;;;;;4965855;28;20126;-69
2022/09/28 11:16:27;;;;;;;1.52;0.57;;;27.80;67.70;;;;;;4967945;28;20053;-68
2022/09/28 11:18:54;;;;;;;1.60;0.57;;;27.60;67.90;;;;;;4966059;28;20139;-69
2022/09/28 11:21:25;;;;;;;1.52;0.43;;;26.70;68.30;;;;;;4949871;28;20109;-68
2022/09/28 11:24:04;;;;;;;1.55;0.47;;;25.40;67.50;;;;;;4946837;28;20499;-69
2022/09/28 11:26:39;;;;;;;2.83;0.50;;;24.30;70.00;;;;;;4964426;28;20047;-69
2022/09/28 11:29:07;;;;;;;2.22;0.68;;;23.10;72.80;;;;;;4952827;28;20058;-68
2022/09/28 11:31:35;;;;;;;2.10;0.50;;;22.10;74.70;;;;;;4965414;28;20121;-69
2022/09/28 11:34:06;;;;;;;2.03;0.45;;;21.00;77.70;;;;;;4966009;28;20054;-68
2022/09/28 11:37:02;;;;;;;1.55;0.50;;;19.90;80.60;;;;;;4949505;28;20128;-69
2022/09/28 11:39:39;;;;;;;2.10;0.73;;;19.10;84.00;;;;;;4969838;28;20081;-67
2022/09/28 11:42:17;;;;;;;6.60;0.73;;;18.20;88.20;;;;;;4965900;28;20046;-69
2022/09/28 11:44:46;;;;;;;1.30;0.60;;;17.80;90.70;;;;;;4968499;28;20109;-68
2022/09/28 11:47:45;;;;;;;1.88;0.60;;;17.30;92.00;;;;;;4967836;28;20059;-69
2022/09/28 11:50:22;;;;;;;2.17;0.93;;;16.90;93.20;;;;;;4953394;28;20050;-68
2022/09/28 11:52:56;;;;;;;4.53;0.70;;;17.40;93.40;;;;;;4949691;28;20055;-68
2022/09/28 11:55:32;;;;;;;2.40;0.60;;;17.60;93.70;;;;;;4968710;28;20051;-68
2022/09/28 11:58:09;;;;;;;1.98;0.50;;;17.70;92.30;;;;;;4966392;28;20050;-69
2022/09/28 12:00:43;;;;;;;0.75;0.40;;;17.80;91.80;;;;;;4967073;28;20126;-68
2022/09/28 12:03:15;;;;;;;0.98;0.40;;;18.00;91.30;;;;;;4969816;28;20403;-68
2022/09/28 12:05:47;;;;;;;1.10;0.60;;;18.50;90.40;;;;;;4967767;28;20049;-67
2022/09/28 12:08:19;;;;;;;1.63;0.60;;;20.00;89.60;;;;;;4957487;28;20138;-69
2022/09/28 12:10:54;;;;;;;1.70;0.70;;;21.90;85.20;;;;;;4973483;28;20054;-68
2022/09/28 12:13:26;;;;;;;1.42;0.52;;;23.20;81.10;;;;;;4952985;28;20403;-68
2022/09/28 12:15:57;;;;;;;1.45;0.57;;;24.10;76.60;;;;;;4954317;28;20109;-68
2022/09/28 12:18:31;;;;;;;1.35;0.70;;;22.90;77.70;;;;;;4957069;28;20062;-68
2022/09/28 12:21:18;;;;;;;0.70;0.50;;;22.40;78.10;;;;;;4972174;28;20055;-68
2022/09/28 12:23:46;;;;;;;2.50;0.60;;;21.40;80.00;;;;;;4970393;28;20062;-68
2022/09/28 12:26:28;;;;;;;1.92;0.80;;;20.40;84.20;;;;;;4973313;28;20058;-68
2022/09/28 12:28:59;;;;;;;2.05;0.75;;;19.20;88.00;;;;;;4955559;28;20130;-68
2022/09/28 12:31:37;;;;;;;1.25;0.60;;;18.20;90.90;;;;;;4952136;28;20066;-67
2022/09/28 12:34:05;;;;;;;1.23;0.50;;;17.40;93.30;;;;;;4953632;28;20050;-68
2022/09/28 12:36:47;;;;;;;1.40;0.60;;;17.00;94.00;;;;;;4973890;28;20050;-67
2022/09/28 12:39:31;;;;;;;1.25;0.60;;;16.60;94.80;;;;;;4944661;28;20055;-68
2022/09/28 12:42:13;;;;;;;0.75;0.50;;;16.20;96.00;;;;;;4967926;28;20057;-67
2022/09/28 12:45:01;;;;;;;0.85;0.50;;;15.70;96.20;;;;;;4951608;28;20110;-67
2022/09/28 12:47:45;;;;;;;0.65;0.40;;;15.40;97.00;;;;;;4951089;28;20054;-67
2022/09/28 12:50:19;;;;;;;1.73;0.60;;;15.10;97.20;;;;;;4967369;28;20040;-67
2022/09/28 12:52:59;;;;;;;1.13;0.45;;;14.80;98.50;;;;;;4948938;28;20051;-67
2022/09/28 12:55:38;;;;;;;1.40;0.40;;;14.60;99.10;;;;;;4955267;28;20062;-68
2022/09/28 12:58:24;;;;;;;1.30;0.70;;;14.50;99.10;;;;;;4951379;28;20055;-68
2022/09/28 13:00:59;;;;;;;1.27;0.65;;;14.50;99.30;;;;;;4949879;28;20051;-67
2022/09/28 13:03:54;;;;;;;2.47;0.50;;;14.50;99.20;;;;;;4954721;28;20051;-67
2022/09/28 13:06:32;;;;;;;2.75;0.60;;;14.50;99.70;;;;;;4949946;28;20062;-67
2022/09/28 13:09:18;;;;;;;2.33;1.33;;;14.60;99.10;;;;;;4950348;28;20054;-68
2022/09/28 13:12:03;;;;;;;2.83;1.85;;;14.50;99.60;;;;;;4966353;28;20130;-68
2022/09/28 13:14:58;;;;;;;2.53;1.52;;;14.50;99.00;;;;;;4950665;28;20105;-68
2022/09/28 13:17:42;;;;;;;2.33;1.45;;;14.60;99.80;;;;;;4966784;28;20105;-67
2022/09/28 13:20:22;;;;;;;2.63;1.45;;;14.70;98.90;;;;;;4949206;28;20050;-68